sensor_id;sensor_type;location;lat;lon;timestamp;P1;durP1;ratioP1;P2;durP2;ratioP2
55224;SDS011;41091;49.400;8.684;2023-06-14T00:01:40;4.38;;;2.92;;
55224;SDS011;41091;49.400;8.684;2023-06-14T00:04:05;4.07;;;2.85;;
55224;SDS011;41091;49.400;8.684;2023-06-14T00:06:33;5.55;;;2.47;;
55224;SDS011;41091;49.400;8.684;2023-06-14T00:08:58;7.07;;;2.33;;
55224;SDS011;41091;49.400;8.684;2023-06-14T00:11:24;3.45;;;2.60;;
55224;SDS011;41091;49.400;8.684;2023-06-14T00:13:51;6.55;;;3.38;;
55224;SDS011;41091;49.400;8.684;2023-06-14T00:16:21;3.03;;;2.83;;
55224;SDS011;41091;49.400;8.684;2023-06-14T00:18:47;4.18;;;2.90;;
55224;SDS011;41091;49.400;8.684;2023-06-14T00:21:16;9.07;;;2.63;;
55224;SDS011;41091;49.400;8.684;2023-06-14T00:23:46;4.57;;;2.72;;
55224;SDS011;41091;49.400;8.684;2023-06-14T00:26:12;11.68;;;2.80;;
55224;SDS011;41091;49.400;8.684;2023-06-14T00:28:39;3.35;;;3.05;;
55224;SDS011;41091;49.400;8.684;2023-06-14T00:31:06;8.63;;;3.10;;
55224;SDS011;41091;49.400;8.684;2023-06-14T00:33:33;3.13;;;2.92;;
55224;SDS011;41091;49.400;8.684;2023-06-14T00:35:59;3.45;;;3.10;;
55224;SDS011;41091;49.400;8.684;2023-06-14T00:40:56;3.83;;;3.03;;
55224;SDS011;41091;49.400;8.684;2023-06-14T00:43:21;5.78;;;3.15;;
55224;SDS011;41091;49.400;8.684;2023-06-14T00:45:49;5.25;;;3.67;;
55224;SDS011;41091;49.400;8.684;2023-06-14T00:48:16;3.53;;;2.97;;
55224;SDS011;41091;49.400;8.684;2023-06-14T00:50:42;6.68;;;3.15;;
55224;SDS011;41091;49.400;8.684;2023-06-14T00:53:11;3.03;;;2.78;;
55224;SDS011;41091;49.400;8.684;2023-06-14T00:55:37;7.28;;;2.85;;
55224;SDS011;41091;49.400;8.684;2023-06-14T00:58:05;3.25;;;2.72;;
55224;SDS011;41091;49.400;8.684;2023-06-14T01:00:31;2.85;;;2.67;;
55224;SDS011;41091;49.400;8.684;2023-06-14T01:02:58;3.22;;;3.00;;
55224;SDS011;41091;49.400;8.684;2023-06-14T01:05:27;4.97;;;3.60;;
55224;SDS011;41091;49.400;8.684;2023-06-14T01:10:56;4.97;;;3.10;;
55224;SDS011;41091;49.400;8.684;2023-06-14T01:13:27;2.47;;;2.38;;
55224;SDS011;41091;49.400;8.684;2023-06-14T01:15:57;5.05;;;2.80;;
55224;SDS011;41091;49.400;8.684;2023-06-14T01:18:25;4.57;;;2.40;;
55224;SDS011;41091;49.400;8.684;2023-06-14T01:20:54;5.13;;;2.78;;
55224;SDS011;41091;49.400;8.684;2023-06-14T01:23:20;11.10;;;2.90;;
55224;SDS011;41091;49.400;8.684;2023-06-14T01:25:50;2.95;;;2.75;;
55224;SDS011;41091;49.400;8.684;2023-06-14T01:28:19;3.78;;;2.70;;
55224;SDS011;41091;49.400;8.684;2023-06-14T01:30:46;4.70;;;2.70;;
55224;SDS011;41091;49.400;8.684;2023-06-14T01:33:20;3.25;;;2.88;;
55224;SDS011;41091;49.400;8.684;2023-06-14T01:35:47;5.38;;;3.22;;
55224;SDS011;41091;49.400;8.684;2023-06-14T01:38:17;4.40;;;3.15;;
55224;SDS011;41091;49.400;8.684;2023-06-14T01:40:47;2.95;;;2.75;;
55224;SDS011;41091;49.400;8.684;2023-06-14T01:43:13;3.38;;;2.90;;
55224;SDS011;41091;49.400;8.684;2023-06-14T01:45:40;7.13;;;3.50;;
55224;SDS011;41091;49.400;8.684;2023-06-14T01:48:07;3.38;;;3.10;;
55224;SDS011;41091;49.400;8.684;2023-06-14T01:50:34;5.22;;;3.17;;
55224;SDS011;41091;49.400;8.684;2023-06-14T01:53:00;9.68;;;2.95;;
55224;SDS011;41091;49.400;8.684;2023-06-14T01:55:28;3.03;;;2.83;;
55224;SDS011;41091;49.400;8.684;2023-06-14T01:58:02;6.15;;;3.42;;
55224;SDS011;41091;49.400;8.684;2023-06-14T02:00:27;5.20;;;3.28;;
55224;SDS011;41091;49.400;8.684;2023-06-14T02:02:52;3.00;;;2.70;;
55224;SDS011;41091;49.400;8.684;2023-06-14T02:05:20;10.15;;;2.70;;
55224;SDS011;41091;49.400;8.684;2023-06-14T02:07:46;7.20;;;2.80;;
55224;SDS011;41091;49.400;8.684;2023-06-14T02:10:11;4.70;;;3.28;;
55224;SDS011;41091;49.400;8.684;2023-06-14T02:12:39;6.68;;;2.65;;
55224;SDS011;41091;49.400;8.684;2023-06-14T02:15:05;4.90;;;3.20;;
55224;SDS011;41091;49.400;8.684;2023-06-14T02:17:33;3.53;;;3.13;;
55224;SDS011;41091;49.400;8.684;2023-06-14T02:19:59;2.70;;;2.50;;
55224;SDS011;41091;49.400;8.684;2023-06-14T02:22:29;4.53;;;2.85;;
55224;SDS011;41091;49.400;8.684;2023-06-14T02:24:57;3.72;;;3.40;;
55224;SDS011;41091;49.400;8.684;2023-06-14T02:27:22;4.95;;;3.00;;
55224;SDS011;41091;49.400;8.684;2023-06-14T02:29:47;7.13;;;2.15;;
55224;SDS011;41091;49.400;8.684;2023-06-14T02:32:15;5.00;;;3.13;;
55224;SDS011;41091;49.400;8.684;2023-06-14T02:34:43;4.07;;;2.67;;
55224;SDS011;41091;49.400;8.684;2023-06-14T02:37:08;3.67;;;2.58;;
55224;SDS011;41091;49.400;8.684;2023-06-14T02:39:34;3.55;;;2.90;;
55224;SDS011;41091;49.400;8.684;2023-06-14T02:42:00;3.95;;;3.15;;
55224;SDS011;41091;49.400;8.684;2023-06-14T02:44:28;7.57;;;3.30;;
55224;SDS011;41091;49.400;8.684;2023-06-14T02:46:54;4.53;;;2.72;;
55224;SDS011;41091;49.400;8.684;2023-06-14T02:49:26;3.13;;;2.85;;
55224;SDS011;41091;49.400;8.684;2023-06-14T02:51:51;7.30;;;2.88;;
55224;SDS011;41091;49.400;8.684;2023-06-14T02:54:17;6.80;;;2.67;;
55224;SDS011;41091;49.400;8.684;2023-06-14T02:56:44;7.90;;;2.80;;
55224;SDS011;41091;49.400;8.684;2023-06-14T02:59:12;2.90;;;2.70;;
55224;SDS011;41091;49.400;8.684;2023-06-14T03:01:39;3.35;;;2.92;;
55224;SDS011;41091;49.400;8.684;2023-06-14T03:04:06;5.70;;;2.60;;
55224;SDS011;41091;49.400;8.684;2023-06-14T03:06:34;8.93;;;3.30;;
55224;SDS011;41091;49.400;8.684;2023-06-14T03:09:00;3.58;;;3.13;;
55224;SDS011;41091;49.400;8.684;2023-06-14T03:11:29;9.30;;;3.67;;
55224;SDS011;41091;49.400;8.684;2023-06-14T03:13:54;3.58;;;2.78;;
55224;SDS011;41091;49.400;8.684;2023-06-14T03:16:23;9.77;;;2.90;;
55224;SDS011;41091;49.400;8.684;2023-06-14T03:18:49;7.47;;;3.13;;
55224;SDS011;41091;49.400;8.684;2023-06-14T03:21:18;3.20;;;2.93;;
55224;SDS011;41091;49.400;8.684;2023-06-14T03:23:46;5.82;;;2.58;;
55224;SDS011;41091;49.400;8.684;2023-06-14T03:26:12;4.47;;;2.88;;
55224;SDS011;41091;49.400;8.684;2023-06-14T03:28:46;7.47;;;3.08;;
55224;SDS011;41091;49.400;8.684;2023-06-14T03:31:12;3.90;;;2.85;;
55224;SDS011;41091;49.400;8.684;2023-06-14T03:33:38;7.43;;;2.88;;
55224;SDS011;41091;49.400;8.684;2023-06-14T03:36:04;3.40;;;3.10;;
55224;SDS011;41091;49.400;8.684;2023-06-14T03:38:32;6.68;;;3.50;;
55224;SDS011;41091;49.400;8.684;2023-06-14T03:40:58;5.68;;;2.30;;
55224;SDS011;41091;49.400;8.684;2023-06-14T03:43:23;2.92;;;2.67;;
55224;SDS011;41091;49.400;8.684;2023-06-14T03:45:48;9.73;;;3.10;;
55224;SDS011;41091;49.400;8.684;2023-06-14T03:48:14;2.67;;;2.50;;
55224;SDS011;41091;49.400;8.684;2023-06-14T03:50:39;3.63;;;2.78;;
55224;SDS011;41091;49.400;8.684;2023-06-14T03:53:10;2.90;;;2.65;;
55224;SDS011;41091;49.400;8.684;2023-06-14T03:55:37;3.35;;;2.95;;
55224;SDS011;41091;49.400;8.684;2023-06-14T03:58:06;3.22;;;3.03;;
55224;SDS011;41091;49.400;8.684;2023-06-14T04:00:31;3.53;;;3.10;;
55224;SDS011;41091;49.400;8.684;2023-06-14T04:02:57;7.40;;;2.75;;
55224;SDS011;41091;49.400;8.684;2023-06-14T04:05:22;9.05;;;2.83;;
55224;SDS011;41091;49.400;8.684;2023-06-14T04:07:51;2.92;;;2.72;;
55224;SDS011;41091;49.400;8.684;2023-06-14T04:10:17;4.25;;;2.90;;
55224;SDS011;41091;49.400;8.684;2023-06-14T04:12:42;6.82;;;3.20;;
55224;SDS011;41091;49.400;8.684;2023-06-14T04:15:08;3.47;;;2.60;;
55224;SDS011;41091;49.400;8.684;2023-06-14T04:17:34;5.75;;;3.22;;
55224;SDS011;41091;49.400;8.684;2023-06-14T04:20:04;6.60;;;2.75;;
55224;SDS011;41091;49.400;8.684;2023-06-14T04:22:31;5.72;;;3.65;;
55224;SDS011;41091;49.400;8.684;2023-06-14T04:24:57;6.05;;;2.90;;
55224;SDS011;41091;49.400;8.684;2023-06-14T04:27:22;4.97;;;2.88;;
55224;SDS011;41091;49.400;8.684;2023-06-14T04:29:53;3.40;;;3.10;;
55224;SDS011;41091;49.400;8.684;2023-06-14T04:32:27;6.88;;;2.97;;
55224;SDS011;41091;49.400;8.684;2023-06-14T04:34:54;7.32;;;2.80;;
55224;SDS011;41091;49.400;8.684;2023-06-14T04:37:20;7.63;;;2.80;;
55224;SDS011;41091;49.400;8.684;2023-06-14T04:39:49;7.43;;;3.30;;
55224;SDS011;41091;49.400;8.684;2023-06-14T04:42:15;7.07;;;3.05;;
55224;SDS011;41091;49.400;8.684;2023-06-14T04:44:45;8.48;;;3.35;;
55224;SDS011;41091;49.400;8.684;2023-06-14T04:47:14;5.22;;;3.47;;
55224;SDS011;41091;49.400;8.684;2023-06-14T04:49:41;12.05;;;3.25;;
55224;SDS011;41091;49.400;8.684;2023-06-14T04:52:07;3.70;;;3.33;;
55224;SDS011;41091;49.400;8.684;2023-06-14T04:54:38;6.72;;;2.80;;
55224;SDS011;41091;49.400;8.684;2023-06-14T04:57:09;9.95;;;3.05;;
55224;SDS011;41091;49.400;8.684;2023-06-14T04:59:38;4.15;;;3.75;;
55224;SDS011;41091;49.400;8.684;2023-06-14T05:02:06;7.03;;;3.30;;
55224;SDS011;41091;49.400;8.684;2023-06-14T05:04:33;4.90;;;2.70;;
55224;SDS011;41091;49.400;8.684;2023-06-14T05:06:59;10.30;;;3.33;;
55224;SDS011;41091;49.400;8.684;2023-06-14T05:09:26;7.25;;;3.03;;
55224;SDS011;41091;49.400;8.684;2023-06-14T05:11:51;4.10;;;2.85;;
55224;SDS011;41091;49.400;8.684;2023-06-14T05:14:16;8.60;;;3.65;;
55224;SDS011;41091;49.400;8.684;2023-06-14T05:16:43;9.45;;;3.70;;
55224;SDS011;41091;49.400;8.684;2023-06-14T05:19:08;7.70;;;4.13;;
55224;SDS011;41091;49.400;8.684;2023-06-14T05:21:35;10.32;;;4.63;;
55224;SDS011;41091;49.400;8.684;2023-06-14T05:24:00;7.13;;;4.95;;
55224;SDS011;41091;49.400;8.684;2023-06-14T05:26:26;8.07;;;4.80;;
55224;SDS011;41091;49.400;8.684;2023-06-14T05:28:54;7.43;;;3.92;;
55224;SDS011;41091;49.400;8.684;2023-06-14T05:31:21;8.88;;;4.28;;
55224;SDS011;41091;49.400;8.684;2023-06-14T05:33:48;4.93;;;3.28;;
55224;SDS011;41091;49.400;8.684;2023-06-14T05:36:13;5.72;;;4.30;;
55224;SDS011;41091;49.400;8.684;2023-06-14T05:38:38;10.23;;;4.68;;
55224;SDS011;41091;49.400;8.684;2023-06-14T05:41:06;7.13;;;3.42;;
55224;SDS011;41091;49.400;8.684;2023-06-14T05:43:31;13.35;;;5.90;;
55224;SDS011;41091;49.400;8.684;2023-06-14T05:45:57;6.68;;;4.55;;
55224;SDS011;41091;49.400;8.684;2023-06-14T05:48:22;9.02;;;4.40;;
55224;SDS011;41091;49.400;8.684;2023-06-14T05:50:50;10.00;;;3.78;;
55224;SDS011;41091;49.400;8.684;2023-06-14T05:53:15;5.72;;;3.63;;
55224;SDS011;41091;49.400;8.684;2023-06-14T05:55:40;4.13;;;3.80;;
55224;SDS011;41091;49.400;8.684;2023-06-14T05:58:06;6.38;;;3.95;;
55224;SDS011;41091;49.400;8.684;2023-06-14T06:00:31;14.18;;;4.28;;
55224;SDS011;41091;49.400;8.684;2023-06-14T06:02:57;9.63;;;4.20;;
55224;SDS011;41091;49.400;8.684;2023-06-14T06:05:25;6.57;;;4.03;;
55224;SDS011;41091;49.400;8.684;2023-06-14T06:07:55;6.72;;;4.05;;
55224;SDS011;41091;49.400;8.684;2023-06-14T06:10:21;8.52;;;3.67;;
55224;SDS011;41091;49.400;8.684;2023-06-14T06:12:48;8.85;;;3.42;;
55224;SDS011;41091;49.400;8.684;2023-06-14T06:15:17;6.25;;;3.88;;
55224;SDS011;41091;49.400;8.684;2023-06-14T06:17:43;7.53;;;3.75;;
55224;SDS011;41091;49.400;8.684;2023-06-14T06:20:09;3.88;;;3.28;;
55224;SDS011;41091;49.400;8.684;2023-06-14T06:22:36;8.23;;;3.70;;
55224;SDS011;41091;49.400;8.684;2023-06-14T06:25:01;8.30;;;3.95;;
55224;SDS011;41091;49.400;8.684;2023-06-14T06:27:27;9.55;;;3.70;;
55224;SDS011;41091;49.400;8.684;2023-06-14T06:29:53;6.50;;;3.05;;
55224;SDS011;41091;49.400;8.684;2023-06-14T06:32:18;4.18;;;3.50;;
55224;SDS011;41091;49.400;8.684;2023-06-14T06:34:46;5.30;;;3.17;;
55224;SDS011;41091;49.400;8.684;2023-06-14T06:37:11;14.20;;;4.13;;
55224;SDS011;41091;49.400;8.684;2023-06-14T06:39:37;4.85;;;3.40;;
55224;SDS011;41091;49.400;8.684;2023-06-14T06:42:02;10.77;;;3.75;;
55224;SDS011;41091;49.400;8.684;2023-06-14T06:44:27;11.80;;;3.17;;
55224;SDS011;41091;49.400;8.684;2023-06-14T06:46:53;9.38;;;3.10;;
55224;SDS011;41091;49.400;8.684;2023-06-14T06:49:18;4.82;;;3.17;;
55224;SDS011;41091;49.400;8.684;2023-06-14T06:51:52;3.58;;;3.15;;
55224;SDS011;41091;49.400;8.684;2023-06-14T06:54:24;8.10;;;3.00;;
55224;SDS011;41091;49.400;8.684;2023-06-14T06:56:54;4.93;;;2.95;;
55224;SDS011;41091;49.400;8.684;2023-06-14T06:59:20;5.60;;;3.00;;
55224;SDS011;41091;49.400;8.684;2023-06-14T07:01:48;2.55;;;2.35;;
55224;SDS011;41091;49.400;8.684;2023-06-14T07:04:16;7.47;;;4.97;;
55224;SDS011;41091;49.400;8.684;2023-06-14T07:06:42;3.65;;;2.83;;
55224;SDS011;41091;49.400;8.684;2023-06-14T07:09:07;15.20;;;2.90;;
55224;SDS011;41091;49.400;8.684;2023-06-14T07:11:37;4.93;;;3.00;;
55224;SDS011;41091;49.400;8.684;2023-06-14T07:14:03;3.47;;;2.58;;
55224;SDS011;41091;49.400;8.684;2023-06-14T07:16:28;4.15;;;2.60;;
55224;SDS011;41091;49.400;8.684;2023-06-14T07:18:57;8.60;;;4.13;;
55224;SDS011;41091;49.400;8.684;2023-06-14T07:21:24;6.32;;;3.00;;
55224;SDS011;41091;49.400;8.684;2023-06-14T07:23:51;3.10;;;2.90;;
55224;SDS011;41091;49.400;8.684;2023-06-14T07:26:17;3.85;;;3.13;;
55224;SDS011;41091;49.400;8.684;2023-06-14T07:28:42;2.70;;;2.50;;
55224;SDS011;41091;49.400;8.684;2023-06-14T07:31:10;3.10;;;2.78;;
55224;SDS011;41091;49.400;8.684;2023-06-14T07:33:35;4.28;;;2.40;;
55224;SDS011;41091;49.400;8.684;2023-06-14T07:36:01;2.65;;;2.53;;
55224;SDS011;41091;49.400;8.684;2023-06-14T07:38:28;3.47;;;3.03;;
55224;SDS011;41091;49.400;8.684;2023-06-14T07:40:56;4.32;;;2.38;;
55224;SDS011;41091;49.400;8.684;2023-06-14T07:43:23;4.68;;;2.55;;
55224;SDS011;41091;49.400;8.684;2023-06-14T07:45:49;2.65;;;2.45;;
55224;SDS011;41091;49.400;8.684;2023-06-14T07:48:14;3.20;;;2.58;;
55224;SDS011;41091;49.400;8.684;2023-06-14T07:50:40;3.08;;;2.85;;
55224;SDS011;41091;49.400;8.684;2023-06-14T07:53:08;3.63;;;2.45;;
55224;SDS011;41091;49.400;8.684;2023-06-14T07:55:33;2.28;;;2.17;;
55224;SDS011;41091;49.400;8.684;2023-06-14T07:58:01;11.25;;;2.47;;
55224;SDS011;41091;49.400;8.684;2023-06-14T08:00:27;4.28;;;2.42;;
55224;SDS011;41091;49.400;8.684;2023-06-14T08:02:55;8.98;;;3.28;;
55224;SDS011;41091;49.400;8.684;2023-06-14T08:05:24;2.92;;;2.72;;
55224;SDS011;41091;49.400;8.684;2023-06-14T08:07:50;3.55;;;3.00;;
55224;SDS011;41091;49.400;8.684;2023-06-14T08:10:16;9.10;;;3.08;;
55224;SDS011;41091;49.400;8.684;2023-06-14T08:12:41;10.63;;;3.55;;
55224;SDS011;41091;49.400;8.684;2023-06-14T08:15:09;5.50;;;2.97;;
55224;SDS011;41091;49.400;8.684;2023-06-14T08:17:35;3.85;;;3.20;;
55224;SDS011;41091;49.400;8.684;2023-06-14T08:20:00;5.28;;;2.88;;
55224;SDS011;41091;49.400;8.684;2023-06-14T08:22:26;12.43;;;3.20;;
55224;SDS011;41091;49.400;8.684;2023-06-14T08:24:53;6.15;;;3.60;;
55224;SDS011;41091;49.400;8.684;2023-06-14T08:27:19;5.22;;;3.85;;
55224;SDS011;41091;49.400;8.684;2023-06-14T08:29:47;6.13;;;2.55;;
55224;SDS011;41091;49.400;8.684;2023-06-14T08:32:15;5.90;;;2.78;;
55224;SDS011;41091;49.400;8.684;2023-06-14T08:34:43;15.27;;;2.88;;
55224;SDS011;41091;49.400;8.684;2023-06-14T08:37:08;4.53;;;2.50;;
55224;SDS011;41091;49.400;8.684;2023-06-14T08:39:33;4.50;;;3.33;;
55224;SDS011;41091;49.400;8.684;2023-06-14T08:42:01;2.97;;;2.78;;
55224;SDS011;41091;49.400;8.684;2023-06-14T08:44:28;3.95;;;2.67;;
55224;SDS011;41091;49.400;8.684;2023-06-14T08:46:55;5.70;;;3.05;;
55224;SDS011;41091;49.400;8.684;2023-06-14T08:49:22;4.20;;;2.88;;
55224;SDS011;41091;49.400;8.684;2023-06-14T08:51:54;6.68;;;2.60;;
55224;SDS011;41091;49.400;8.684;2023-06-14T08:54:23;7.00;;;2.90;;
55224;SDS011;41091;49.400;8.684;2023-06-14T08:56:54;5.33;;;3.10;;
55224;SDS011;41091;49.400;8.684;2023-06-14T08:59:24;4.57;;;2.22;;
55224;SDS011;41091;49.400;8.684;2023-06-14T09:01:53;4.05;;;2.50;;
55224;SDS011;41091;49.400;8.684;2023-06-14T09:04:22;3.43;;;2.30;;
55224;SDS011;41091;49.400;8.684;2023-06-14T09:06:49;2.20;;;2.10;;
55224;SDS011;41091;49.400;8.684;2023-06-14T09:09:18;2.95;;;2.42;;
55224;SDS011;41091;49.400;8.684;2023-06-14T09:11:51;2.50;;;2.25;;
55224;SDS011;41091;49.400;8.684;2023-06-14T09:14:17;7.35;;;2.50;;
55224;SDS011;41091;49.400;8.684;2023-06-14T09:16:43;9.63;;;2.83;;
55224;SDS011;41091;49.400;8.684;2023-06-14T09:19:08;10.35;;;2.65;;
55224;SDS011;41091;49.400;8.684;2023-06-14T09:21:40;5.85;;;2.80;;
55224;SDS011;41091;49.400;8.684;2023-06-14T09:24:05;4.65;;;2.55;;
55224;SDS011;41091;49.400;8.684;2023-06-14T09:26:40;5.20;;;3.42;;
55224;SDS011;41091;49.400;8.684;2023-06-14T09:29:08;6.63;;;2.97;;
55224;SDS011;41091;49.400;8.684;2023-06-14T09:31:39;2.92;;;2.25;;
55224;SDS011;41091;49.400;8.684;2023-06-14T09:34:04;4.70;;;2.80;;
55224;SDS011;41091;49.400;8.684;2023-06-14T09:36:31;2.83;;;2.05;;
55224;SDS011;41091;49.400;8.684;2023-06-14T09:39:03;2.50;;;2.30;;
55224;SDS011;41091;49.400;8.684;2023-06-14T09:41:32;4.20;;;2.13;;
55224;SDS011;41091;49.400;8.684;2023-06-14T09:44:04;3.65;;;2.20;;
55224;SDS011;41091;49.400;8.684;2023-06-14T09:46:31;2.60;;;2.47;;
55224;SDS011;41091;49.400;8.684;2023-06-14T09:48:57;3.22;;;1.70;;
55224;SDS011;41091;49.400;8.684;2023-06-14T09:51:25;3.05;;;2.20;;
55224;SDS011;41091;49.400;8.684;2023-06-14T09:53:55;5.95;;;2.35;;
55224;SDS011;41091;49.400;8.684;2023-06-14T09:56:28;2.42;;;2.05;;
55224;SDS011;41091;49.400;8.684;2023-06-14T09:58:58;5.20;;;2.72;;
55224;SDS011;41091;49.400;8.684;2023-06-14T10:01:30;5.65;;;2.35;;
55224;SDS011;41091;49.400;8.684;2023-06-14T10:04:02;2.65;;;1.98;;
55224;SDS011;41091;49.400;8.684;2023-06-14T10:06:30;2.88;;;2.40;;
55224;SDS011;41091;49.400;8.684;2023-06-14T10:08:59;2.08;;;1.98;;
55224;SDS011;41091;49.400;8.684;2023-06-14T10:11:28;1.92;;;1.80;;
55224;SDS011;41091;49.400;8.684;2023-06-14T10:13:56;2.40;;;2.20;;
55224;SDS011;41091;49.400;8.684;2023-06-14T10:19:11;3.25;;;2.00;;
55224;SDS011;41091;49.400;8.684;2023-06-14T10:24:32;2.55;;;1.90;;
55224;SDS011;41091;49.400;8.684;2023-06-14T10:26:58;6.57;;;2.25;;
55224;SDS011;41091;49.400;8.684;2023-06-14T10:29:24;5.60;;;2.17;;
55224;SDS011;41091;49.400;8.684;2023-06-14T10:31:51;2.00;;;1.90;;
55224;SDS011;41091;49.400;8.684;2023-06-14T10:34:22;2.67;;;1.67;;
55224;SDS011;41091;49.400;8.684;2023-06-14T10:37:11;4.93;;;2.58;;
55224;SDS011;41091;49.400;8.684;2023-06-14T10:39:39;6.90;;;2.33;;
55224;SDS011;41091;49.400;8.684;2023-06-14T10:42:12;2.55;;;1.90;;
55224;SDS011;41091;49.400;8.684;2023-06-14T10:47:19;3.00;;;2.08;;
55224;SDS011;41091;49.400;8.684;2023-06-14T10:49:53;4.18;;;1.65;;
55224;SDS011;41091;49.400;8.684;2023-06-14T10:52:26;6.20;;;2.00;;
55224;SDS011;41091;49.400;8.684;2023-06-14T10:55:03;3.80;;;1.90;;
55224;SDS011;41091;49.400;8.684;2023-06-14T10:57:31;4.40;;;2.00;;
55224;SDS011;41091;49.400;8.684;2023-06-14T11:00:00;6.05;;;2.00;;
55224;SDS011;41091;49.400;8.684;2023-06-14T11:02:46;2.20;;;1.83;;
55224;SDS011;41091;49.400;8.684;2023-06-14T11:05:16;2.05;;;1.95;;
55224;SDS011;41091;49.400;8.684;2023-06-14T11:13:05;2.40;;;1.80;;
55224;SDS011;41091;49.400;8.684;2023-06-14T11:15:32;1.80;;;1.70;;
55224;SDS011;41091;49.400;8.684;2023-06-14T11:18:01;6.00;;;2.25;;
55224;SDS011;41091;49.400;8.684;2023-06-14T11:20:31;1.90;;;1.80;;
55224;SDS011;41091;49.400;8.684;2023-06-14T11:22:57;1.90;;;1.80;;
55224;SDS011;41091;49.400;8.684;2023-06-14T11:25:23;10.18;;;4.15;;
55224;SDS011;41091;49.400;8.684;2023-06-14T11:27:51;4.00;;;1.98;;
55224;SDS011;41091;49.400;8.684;2023-06-14T11:30:19;2.40;;;1.73;;
55224;SDS011;41091;49.400;8.684;2023-06-14T11:32:47;3.00;;;2.25;;
55224;SDS011;41091;49.400;8.684;2023-06-14T11:35:13;3.53;;;1.95;;
55224;SDS011;41091;49.400;8.684;2023-06-14T11:37:41;3.20;;;1.98;;
55224;SDS011;41091;49.400;8.684;2023-06-14T11:40:10;2.75;;;2.08;;
55224;SDS011;41091;49.400;8.684;2023-06-14T11:42:36;1.80;;;1.65;;
55224;SDS011;41091;49.400;8.684;2023-06-14T11:45:03;4.60;;;1.65;;
55224;SDS011;41091;49.400;8.684;2023-06-14T11:47:33;5.40;;;2.15;;
55224;SDS011;41091;49.400;8.684;2023-06-14T11:49:59;1.83;;;1.73;;
55224;SDS011;41091;49.400;8.684;2023-06-14T11:52:25;3.70;;;1.83;;
55224;SDS011;41091;49.400;8.684;2023-06-14T11:54:51;4.95;;;1.95;;
55224;SDS011;41091;49.400;8.684;2023-06-14T11:57:17;2.85;;;2.30;;
55224;SDS011;41091;49.400;8.684;2023-06-14T11:59:43;2.05;;;1.95;;
55224;SDS011;41091;49.400;8.684;2023-06-14T12:02:18;4.18;;;1.80;;
55224;SDS011;41091;49.400;8.684;2023-06-14T12:04:46;7.65;;;1.92;;
55224;SDS011;41091;49.400;8.684;2023-06-14T12:07:15;3.17;;;1.98;;
55224;SDS011;41091;49.400;8.684;2023-06-14T12:09:42;3.55;;;2.22;;
55224;SDS011;41091;49.400;8.684;2023-06-14T12:12:09;2.22;;;1.58;;
55224;SDS011;41091;49.400;8.684;2023-06-14T12:14:35;4.45;;;2.08;;
55224;SDS011;41091;49.400;8.684;2023-06-14T12:17:05;3.30;;;1.67;;
55224;SDS011;41091;49.400;8.684;2023-06-14T12:19:31;1.90;;;1.67;;
55224;SDS011;41091;49.400;8.684;2023-06-14T12:21:58;2.08;;;1.98;;
55224;SDS011;41091;49.400;8.684;2023-06-14T12:24:27;2.75;;;2.50;;
55224;SDS011;41091;49.400;8.684;2023-06-14T12:26:54;2.47;;;1.90;;
55224;SDS011;41091;49.400;8.684;2023-06-14T12:29:19;3.22;;;2.08;;
55224;SDS011;41091;49.400;8.684;2023-06-14T12:31:44;2.88;;;2.00;;
55224;SDS011;41091;49.400;8.684;2023-06-14T12:34:13;3.72;;;1.90;;
55224;SDS011;41091;49.400;8.684;2023-06-14T12:36:38;7.88;;;2.53;;
55224;SDS011;41091;49.400;8.684;2023-06-14T12:39:09;11.27;;;3.28;;
55224;SDS011;41091;49.400;8.684;2023-06-14T12:41:34;5.40;;;3.50;;
55224;SDS011;41091;49.400;8.684;2023-06-14T12:43:59;4.20;;;1.83;;
55224;SDS011;41091;49.400;8.684;2023-06-14T12:46:30;1.85;;;1.70;;
55224;SDS011;41091;49.400;8.684;2023-06-14T12:48:56;3.10;;;1.80;;
55224;SDS011;41091;49.400;8.684;2023-06-14T12:51:24;1.98;;;1.85;;
55224;SDS011;41091;49.400;8.684;2023-06-14T12:53:50;4.93;;;2.00;;
55224;SDS011;41091;49.400;8.684;2023-06-14T12:56:18;7.30;;;1.80;;
55224;SDS011;41091;49.400;8.684;2023-06-14T12:58:43;1.95;;;1.75;;
55224;SDS011;41091;49.400;8.684;2023-06-14T13:01:13;3.88;;;2.20;;
55224;SDS011;41091;49.400;8.684;2023-06-14T13:03:39;2.22;;;2.03;;
55224;SDS011;41091;49.400;8.684;2023-06-14T13:06:04;2.53;;;2.10;;
55224;SDS011;41091;49.400;8.684;2023-06-14T13:08:30;2.03;;;1.92;;
55224;SDS011;41091;49.400;8.684;2023-06-14T13:10:58;7.38;;;2.55;;
55224;SDS011;41091;49.400;8.684;2023-06-14T13:13:23;2.60;;;2.40;;
55224;SDS011;41091;49.400;8.684;2023-06-14T13:15:49;3.60;;;2.17;;
55224;SDS011;41091;49.400;8.684;2023-06-14T13:18:17;2.40;;;2.30;;
55224;SDS011;41091;49.400;8.684;2023-06-14T13:20:42;9.30;;;2.15;;
55224;SDS011;41091;49.400;8.684;2023-06-14T13:23:10;3.17;;;2.17;;
55224;SDS011;41091;49.400;8.684;2023-06-14T13:25:36;5.70;;;3.10;;
55224;SDS011;41091;49.400;8.684;2023-06-14T13:28:03;4.72;;;2.10;;
55224;SDS011;41091;49.400;8.684;2023-06-14T13:30:33;4.40;;;2.22;;
55224;SDS011;41091;49.400;8.684;2023-06-14T13:33:01;2.88;;;2.63;;
55224;SDS011;41091;49.400;8.684;2023-06-14T13:35:27;2.60;;;2.40;;
55224;SDS011;41091;49.400;8.684;2023-06-14T13:37:52;2.53;;;2.42;;
55224;SDS011;41091;49.400;8.684;2023-06-14T13:40:18;2.22;;;2.13;;
55224;SDS011;41091;49.400;8.684;2023-06-14T13:42:44;2.38;;;2.25;;
55224;SDS011;41091;49.400;8.684;2023-06-14T13:45:10;2.53;;;2.10;;
55224;SDS011;41091;49.400;8.684;2023-06-14T13:47:38;3.10;;;2.20;;
55224;SDS011;41091;49.400;8.684;2023-06-14T13:50:06;2.92;;;2.55;;
55224;SDS011;41091;49.400;8.684;2023-06-14T13:52:32;2.78;;;2.58;;
55224;SDS011;41091;49.400;8.684;2023-06-14T13:54:57;9.45;;;2.63;;
55224;SDS011;41091;49.400;8.684;2023-06-14T13:57:25;7.07;;;2.20;;
55224;SDS011;41091;49.400;8.684;2023-06-14T13:59:50;6.28;;;2.60;;
55224;SDS011;41091;49.400;8.684;2023-06-14T14:02:18;2.03;;;1.90;;
55224;SDS011;41091;49.400;8.684;2023-06-14T14:04:43;4.63;;;2.35;;
55224;SDS011;41091;49.400;8.684;2023-06-14T14:07:09;2.42;;;2.33;;
55224;SDS011;41091;49.400;8.684;2023-06-14T14:09:37;6.07;;;2.22;;
55224;SDS011;41091;49.400;8.684;2023-06-14T14:12:02;2.65;;;2.45;;
55224;SDS011;41091;49.400;8.684;2023-06-14T14:14:29;3.92;;;2.20;;
55224;SDS011;41091;49.400;8.684;2023-06-14T14:16:55;8.48;;;1.92;;
55224;SDS011;41091;49.400;8.684;2023-06-14T14:19:21;2.67;;;2.42;;
55224;SDS011;41091;49.400;8.684;2023-06-14T14:21:47;2.28;;;2.17;;
55224;SDS011;41091;49.400;8.684;2023-06-14T14:24:12;5.28;;;1.83;;
55224;SDS011;41091;49.400;8.684;2023-06-14T14:26:38;4.78;;;2.10;;
55224;SDS011;41091;49.400;8.684;2023-06-14T14:29:04;4.18;;;2.28;;
55224;SDS011;41091;49.400;8.684;2023-06-14T14:31:29;4.68;;;1.98;;
55224;SDS011;41091;49.400;8.684;2023-06-14T14:33:55;9.32;;;2.28;;
55224;SDS011;41091;49.400;8.684;2023-06-14T14:36:20;3.50;;;2.88;;
55224;SDS011;41091;49.400;8.684;2023-06-14T14:38:45;4.68;;;2.17;;
55224;SDS011;41091;49.400;8.684;2023-06-14T14:41:12;2.50;;;2.10;;
55224;SDS011;41091;49.400;8.684;2023-06-14T14:43:39;2.53;;;2.33;;
55224;SDS011;41091;49.400;8.684;2023-06-14T14:46:09;3.15;;;2.13;;
55224;SDS011;41091;49.400;8.684;2023-06-14T14:48:35;3.20;;;2.38;;
55224;SDS011;41091;49.400;8.684;2023-06-14T14:51:00;7.80;;;2.65;;
55224;SDS011;41091;49.400;8.684;2023-06-14T14:53:26;5.35;;;2.67;;
55224;SDS011;41091;49.400;8.684;2023-06-14T14:55:53;2.38;;;2.17;;
55224;SDS011;41091;49.400;8.684;2023-06-14T14:58:19;2.88;;;2.17;;
55224;SDS011;41091;49.400;8.684;2023-06-14T15:00:47;2.58;;;2.38;;
55224;SDS011;41091;49.400;8.684;2023-06-14T15:03:14;4.38;;;2.20;;
55224;SDS011;41091;49.400;8.684;2023-06-14T15:05:40;2.40;;;2.28;;
55224;SDS011;41091;49.400;8.684;2023-06-14T15:08:05;2.35;;;2.15;;